KGSH

Details ICAO KGSH
Name GOSHEN MUNI
Region United States
Timezone America/Indiana/Indianapolis (UTC-4.0)
Plans Departing 12
Arriving 6
Stats Elevation 827 ft / 252 m (AMSL)
Location 41.526901° -85.793022°
Runways 2
Magnetic Variation 5.331° W
Sunrise 2018-05-23 10:18:30 UTC / 2018-05-23 06:18:30 Local
Sunset 2018-05-24 01:04:15 UTC / 2018-05-23 21:04:15 Local
Advertisement - Login to hide

Runways

ID Width Length Bearing (true) Bearing (mag) Surface Threshold Offset Overrun Length
05 180 ft / 55 m 2,583 ft / 787 m 44.19° 49.52° Grass 0 ft / 0 m 0 ft / 0 m
09 75 ft / 23 m 4,988 ft / 1,520 m 89.28° 94.61° Asphalt 0 ft / 0 m 0 ft / 0 m
23 180 ft / 55 m 2,583 ft / 787 m 224.20° 229.53° Grass 0 ft / 0 m 0 ft / 0 m
27 75 ft / 23 m 4,988 ft / 1,520 m 269.29° 274.62° Asphalt 0 ft / 0 m 0 ft / 0 m

Map

Weather


0- 5 10 15 20 25 30 35+ Temperature / ° C

Clouds and Precipitation
Forecast for 2018-05-23 18:00 UTC. Updated 8 minutes ago

Ground ~20,000 ft ~40,000 ft Winds

METAR

KGSH 231653Z AUTO VRB03KT 10SM CLR 23/16 A3020 RMK AO2 SLP225 T02330156 $

TAF

Not found

Frequencies

Recorded 126.47 MHz ASOS
Clearance 125.25 MHz SOUTH BEND CLNC DEL
Unicom 123.05 MHz CTAF/UNICOM
Approach 132.05 MHz SOUTH BEND APP/DEP
Warning: Do not use this data for real-world aviation or navigation. No guarantee of current accuracy is given.